Terminal Aerodrome Forecast
Issued by NWS

Home | Current Version | Previous Version | Text Only | Print | Product List | Glossary On
Versions: 1 2 3 4 5 6 7 8 9 10 11 12 13 14 15 16 17 18 19 20 21 22 23 24 25 26 27 28 29
000
FTUS43 KDTX 031139
TAFPTK
TAF
KPTK 031139Z 0312/0412 VRB04KT P6SM SCT070
     FM031600 29005KT P6SM SCT045
     FM031900 20005KT P6SM BKN050
     FM040200 24006KT P6SM SCT060 BKN150
     FM040700 21006KT 6SM -SHRA SCT035 BKN050
     FM040900 23005KT 3SM -SHRA SCT012 BKN025=

USA.gov is the U.S. government's official web portal to all federal, state and local government web resources and services.